createdAt,value
2023-05-12T00:03:01.048Z,23.04076
2023-05-12T00:08:02.561Z,21.51894
2023-05-12T00:13:04.009Z,21.53528
2023-05-12T00:18:05.776Z,23.62928
2023-05-12T00:23:07.250Z,23.46802
2023-05-12T00:28:08.742Z,20.19817
2023-05-12T00:33:10.237Z,24.39599
2023-05-12T00:38:11.647Z,24.11588
2023-05-12T00:43:13.058Z,27.20679
2023-05-12T00:48:14.462Z,25.11294
2023-05-12T00:53:15.852Z,24.99955
2023-05-12T00:58:17.385Z,25.70887
2023-05-12T01:03:18.933Z,25.7259
2023-05-12T01:08:20.452Z,28.61742
2023-05-12T01:13:21.821Z,28.98877
2023-05-12T01:18:23.368Z,31.06792
2023-05-12T01:23:24.879Z,27.65715
2023-05-12T01:28:26.341Z,30.77011
2023-05-12T01:33:27.772Z,33.60035
2023-05-12T01:38:29.259Z,33.60277
2023-05-12T01:43:30.653Z,33.18818
2023-05-12T01:48:32.047Z,34.54503
2023-05-12T01:53:33.502Z,35.34857
2023-05-12T01:58:35.033Z,35.94138
2023-05-12T02:03:36.706Z,37.12066
2023-05-12T02:08:38.257Z,38.71268
2023-05-12T02:13:39.703Z,39.50232
2023-05-12T02:18:41.159Z,38.69761
2023-05-12T02:23:42.675Z,39.99347
2023-05-12T02:28:44.118Z,43.92476
2023-05-12T02:33:45.672Z,42.59044
2023-05-12T02:38:47.144Z,43.87283
2023-05-12T02:43:48.752Z,42.4468
2023-05-12T02:48:50.175Z,44.11609
2023-05-12T02:53:51.552Z,42.06715
2023-05-12T02:58:53.171Z,43.48906
2023-05-12T03:03:54.658Z,45.93901
2023-05-12T03:08:56.076Z,45.12947
2023-05-12T03:13:57.480Z,44.45124
2023-05-12T03:18:58.932Z,44.0973
2023-05-12T03:24:00.377Z,47.34916
2023-05-12T03:29:01.801Z,47.02568
2023-05-12T03:34:03.246Z,48.34455
2023-05-12T03:39:04.638Z,48.30316
2023-05-12T03:44:06.031Z,49.38404
2023-05-12T03:49:07.448Z,48.00577
2023-05-12T03:54:08.853Z,49.61193
2023-05-12T03:59:10.275Z,53.62168
2023-05-12T04:04:11.745Z,57.72588
2023-05-12T04:09:13.266Z,57.47703
2023-05-12T04:14:14.851Z,55.8889
2023-05-12T04:19:16.226Z,57.18745
2023-05-12T04:24:17.617Z,61.33705
2023-05-12T04:29:19.005Z,59.94166
2023-05-12T04:34:20.407Z,60.01125
2023-05-12T04:39:21.837Z,58.14821
2023-05-12T04:44:23.213Z,58.01411
2023-05-12T04:49:24.601Z,60.58403
2023-05-12T04:54:26.072Z,60.09604
2023-05-12T04:59:27.464Z,65.29272
2023-05-12T05:04:28.885Z,58.90053
2023-05-12T05:09:30.297Z,65.62953
2023-05-12T05:14:32.275Z,62.77822
2023-05-12T05:19:43.902Z,61.99304
2023-05-12T05:24:53.834Z,59.03548
2023-05-12T05:29:55.255Z,62.54549
2023-05-12T05:34:56.876Z,73.61078
2023-05-12T05:39:58.351Z,70.58996
2023-05-12T05:44:59.745Z,69.57474
2023-05-12T05:50:01.315Z,70.98087
2023-05-12T05:55:02.663Z,69.06606
2023-05-12T06:00:04.048Z,70.48168
2023-05-12T06:05:05.444Z,69.34913
2023-05-12T06:10:06.913Z,67.15525
2023-05-12T06:15:08.317Z,69.31341
2023-05-12T06:20:09.719Z,73.7361
2023-05-12T06:25:11.109Z,74.61921
2023-05-12T06:30:14.946Z,71.17576
2023-05-12T06:35:28.225Z,75.39334
2023-05-12T06:40:29.606Z,77.0242
2023-05-12T06:45:30.999Z,72.76467
2023-05-12T06:50:43.338Z,70.68024
2023-05-12T06:55:44.723Z,79.13284
2023-05-12T07:00:46.132Z,74.95648
2023-05-12T07:05:47.576Z,73.61225
2023-05-12T07:10:48.983Z,74.68
2023-05-12T07:15:50.410Z,77.04608
2023-05-12T07:20:51.860Z,74.12395
2023-05-12T07:25:53.234Z,74.60668
2023-05-12T07:30:54.668Z,75.25244
2023-05-12T07:35:56.094Z,72.37018
2023-05-12T07:40:58.123Z,85.16237
2023-05-12T07:45:59.534Z,85.45194
2023-05-12T07:51:01.268Z,84.10757
2023-05-12T07:56:02.744Z,83.48957
2023-05-12T08:01:04.322Z,81.74325
2023-05-12T08:06:05.772Z,82.41842
2023-05-12T08:11:07.167Z,80.73608
2023-05-12T08:16:08.582Z,76.68181
2023-05-12T08:21:09.997Z,89.51461
2023-05-12T08:26:11.375Z,83.34541
2023-05-12T08:31:12.891Z,87.11559
2023-05-12T08:36:14.375Z,84.2439
2023-05-12T08:41:15.770Z,95.88558
2023-05-12T08:46:17.177Z,100
2023-05-12T08:51:18.541Z,91.69674
2023-05-12T09:01:24.458Z,89.63615
2023-05-12T09:06:25.910Z,91.3204
2023-05-12T09:11:27.294Z,88.84418
2023-05-12T09:16:28.761Z,89.40785
2023-05-12T09:21:30.161Z,84.24829
2023-05-12T09:26:31.566Z,86.71589
2023-05-12T09:31:32.983Z,95.4731
2023-05-12T09:36:34.513Z,93.17449
2023-05-12T09:41:35.949Z,86.7957
2023-05-12T09:46:37.353Z,89.43027
2023-05-12T09:51:38.661Z,86.75378
2023-05-12T09:56:40.002Z,82.7754
2023-05-12T10:01:41.512Z,86.28494
2023-05-12T10:06:42.909Z,92.67206
2023-05-12T10:11:44.352Z,88.68095
2023-05-12T10:16:45.834Z,93.52526
2023-05-12T10:21:47.286Z,91.63159
2023-05-12T10:26:48.687Z,94.83315
2023-05-12T10:31:50.273Z,94.41385
2023-05-12T10:36:51.781Z,93.18866
2023-05-12T10:41:53.183Z,87.29293
2023-05-12T10:46:54.591Z,83.52547
2023-05-12T10:51:55.998Z,87.89449
2023-05-12T10:56:57.567Z,87.62903
2023-05-12T11:02:00.042Z,90.8021
2023-05-12T11:07:02.964Z,100
2023-05-12T11:12:04.942Z,95.70642
2023-05-12T11:17:06.370Z,95.5125
2023-05-12T11:22:07.789Z,88.76131
2023-05-12T11:27:09.163Z,93.46458
2023-05-12T11:32:10.765Z,85.42336
2023-05-12T11:37:12.183Z,90.10315
2023-05-12T11:42:14.658Z,100
2023-05-12T11:47:17.228Z,93.28236
2023-05-12T11:52:18.683Z,93.40252
2023-05-12T11:57:20.113Z,88.35937
2023-05-12T12:02:32.114Z,83.87906
2023-05-12T12:07:33.590Z,94.44968
2023-05-12T12:12:35.119Z,100
2023-05-12T12:17:36.603Z,94.15366
2023-05-12T12:22:38.076Z,95.72626
2023-05-12T12:27:39.524Z,95.9546
2023-05-12T12:32:40.974Z,94.26365
2023-05-12T12:37:42.548Z,92.48864
2023-05-12T12:42:44.033Z,96.79543
2023-05-12T12:47:45.496Z,100
2023-05-12T12:52:46.924Z,100
2023-05-12T12:57:48.363Z,93.66672
2023-05-12T13:02:49.974Z,99.25756
2023-05-12T13:07:51.514Z,95.66843
2023-05-12T13:12:52.965Z,93.73485
2023-05-12T13:17:54.626Z,100
2023-05-12T13:22:56.041Z,98.37015
2023-05-12T13:27:57.426Z,100
2023-05-12T13:32:58.892Z,89.03345
2023-05-12T13:38:00.359Z,86.56931
2023-05-12T13:43:01.912Z,88.36263
2023-05-12T13:48:03.336Z,87.6911
2023-05-12T13:53:04.781Z,95.45208
2023-05-12T13:58:06.171Z,84.4897
2023-05-12T14:03:07.640Z,85.97352
2023-05-12T14:08:09.176Z,84.78857
2023-05-12T14:13:10.581Z,82.56686
2023-05-12T14:18:12.895Z,87.6391
2023-05-12T14:23:15.664Z,79.22463
2023-05-12T14:28:17.145Z,73.97583
2023-05-12T14:33:18.584Z,72.74938
2023-05-12T14:38:20.006Z,71.34264
2023-05-12T14:43:21.437Z,73.45035
2023-05-12T14:48:22.853Z,70.18149
2023-05-12T14:53:24.316Z,67.94692
2023-05-12T14:58:25.768Z,66.15037
2023-05-12T15:03:27.226Z,66.55198
2023-05-12T15:08:28.743Z,67.84024
2023-05-12T15:13:30.143Z,68.57041
2023-05-12T15:18:31.604Z,67.81996
2023-05-12T15:23:33.078Z,62.42836
2023-05-12T15:28:34.530Z,62.71677
2023-05-12T15:33:35.904Z,58.94717
2023-05-12T15:38:37.341Z,55.58164
2023-05-12T15:43:38.753Z,52.61462
2023-05-12T15:48:40.206Z,50.5615
2023-05-12T15:53:41.599Z,49.67891
2023-05-12T15:58:42.994Z,51.3282
2023-05-12T16:03:44.465Z,51.17168
2023-05-12T16:08:45.901Z,46.22566
2023-05-12T16:13:47.323Z,47.2077
2023-05-12T16:18:48.742Z,47.04517
2023-05-12T16:23:50.162Z,45.59305
2023-05-12T16:28:51.545Z,43.7318
2023-05-12T16:33:52.994Z,43.07908
2023-05-12T16:38:54.396Z,41.93553
2023-05-12T16:43:55.937Z,42.60106
2023-05-12T16:48:57.400Z,38.33907
2023-05-12T16:53:58.771Z,39.33701
2023-05-12T16:59:00.172Z,38.44329
2023-05-12T17:04:01.850Z,36.00019
2023-05-12T17:09:03.397Z,35.27342
2023-05-12T17:14:04.789Z,36.28916
2023-05-12T17:24:10.597Z,35.35529
2023-05-12T17:29:11.993Z,35.47932
2023-05-12T17:34:13.418Z,35.02316
2023-05-12T17:39:14.852Z,33.70796
2023-05-12T17:44:16.250Z,34.51521
2023-05-12T17:49:17.672Z,35.28979
2023-05-12T17:54:19.158Z,37.22348
2023-05-12T17:59:20.515Z,35.03257
2023-05-12T18:04:21.921Z,35.03627
2023-05-12T18:09:23.322Z,34.71496
2023-05-12T18:14:24.725Z,34.567
2023-05-12T18:19:26.189Z,33.47371
2023-05-12T18:24:27.622Z,34.5533
2023-05-12T18:29:29.024Z,31.23475
2023-05-12T18:34:30.459Z,33.57951
2023-05-12T18:39:31.842Z,32.65677
2023-05-12T18:44:33.237Z,29.60722
2023-05-12T18:49:34.615Z,31.39049
2023-05-12T18:54:36.007Z,32.83546
2023-05-12T18:59:37.419Z,29.48636
2023-05-12T19:04:38.850Z,31.34928
2023-05-12T19:09:40.455Z,29.67797
2023-05-12T19:14:41.912Z,32.81016
2023-05-12T19:19:43.317Z,30.65398
2023-05-12T19:24:44.723Z,31.16708
2023-05-12T19:29:46.168Z,29.18383
2023-05-12T19:34:47.565Z,31.89987
2023-05-12T19:39:48.984Z,30.7408
2023-05-12T19:44:50.426Z,30.73109
2023-05-12T19:49:51.855Z,28.39349
2023-05-12T19:54:53.225Z,32.03633
2023-05-12T19:59:54.607Z,30.80997
2023-05-12T20:04:56.004Z,29.16679
2023-05-12T20:09:57.403Z,26.27478
2023-05-12T20:14:58.822Z,27.39617
2023-05-12T20:20:00.226Z,28.21405
2023-05-12T20:25:01.692Z,26.13111
2023-05-12T20:30:03.169Z,25.43746
2023-05-12T20:35:04.958Z,23.64063
2023-05-12T20:40:06.346Z,24.29183
2023-05-12T20:45:07.762Z,21.98089
2023-05-12T20:50:09.162Z,23.22681
2023-05-12T20:55:10.617Z,22.02077
2023-05-12T21:00:11.981Z,21.51155
2023-05-12T21:05:13.389Z,23.293
2023-05-12T21:10:14.848Z,22.26947
2023-05-12T21:15:16.277Z,21.77455
2023-05-12T21:20:17.678Z,20.991
2023-05-12T21:25:19.112Z,21.23413
2023-05-12T21:30:20.766Z,20.88762
2023-05-12T21:35:22.327Z,20.4487
2023-05-12T21:40:23.759Z,21.53201
2023-05-12T21:45:25.154Z,20.38848
2023-05-12T21:50:26.569Z,21.97075
2023-05-12T21:55:28.058Z,20.66979
2023-05-12T22:00:29.504Z,21.54153
2023-05-12T22:05:30.936Z,22.59348
2023-05-12T22:10:32.365Z,22.36233
2023-05-12T22:15:33.873Z,21.42422
2023-05-12T22:20:35.285Z,20.95957
2023-05-12T22:25:48.178Z,20.85122
2023-05-12T22:30:49.605Z,19.46474
2023-05-12T22:35:51.032Z,20.10372
2023-05-12T22:40:52.434Z,19.08791
2023-05-12T22:45:53.849Z,18.48028
2023-05-12T22:50:55.374Z,17.28013
2023-05-12T22:55:56.812Z,16.92567
2023-05-12T23:00:58.317Z,18.33482
2023-05-12T23:05:59.968Z,20.98687
2023-05-12T23:11:01.466Z,18.68149
2023-05-12T23:16:02.976Z,19.33808
2023-05-12T23:21:04.393Z,19.14221
2023-05-12T23:26:05.831Z,19.24506
2023-05-12T23:31:07.357Z,20.865
2023-05-12T23:36:08.769Z,15.47298
2023-05-12T23:41:10.259Z,18.05838
2023-05-12T23:46:11.760Z,19.61825
2023-05-12T23:51:13.253Z,19.27517
2023-05-12T23:56:14.673Z,19.02415
